createdAt,value
2022-12-04T00:01:27.028Z,25.13
2022-12-04T00:03:55.031Z,29.75
2022-12-04T00:06:24.709Z,18.63
2022-12-04T00:08:52.087Z,27.10
2022-12-04T00:11:23.586Z,18.23
2022-12-04T00:13:52.493Z,19.43
2022-12-04T00:16:21.371Z,21.13
2022-12-04T00:18:50.470Z,19.65
2022-12-04T00:21:18.635Z,16.00
2022-12-04T00:23:46.252Z,29.20
2022-12-04T00:26:23.881Z,26.92
2022-12-04T00:28:50.816Z,22.00
2022-12-04T00:31:22.769Z,23.33
2022-12-04T00:33:49.610Z,25.60
2022-12-04T00:36:18.412Z,18.20
2022-12-04T00:38:47.866Z,25.65
2022-12-04T00:41:16.935Z,25.23
2022-12-04T00:43:43.771Z,26.25
2022-12-04T00:46:13.203Z,21.02
2022-12-04T00:48:45.184Z,22.10
2022-12-04T00:51:16.567Z,20.70
2022-12-04T00:53:48.231Z,34.92
2022-12-04T00:56:20.898Z,39.90
2022-12-04T00:58:47.987Z,24.35
2022-12-04T01:01:17.596Z,51.15
2022-12-04T01:03:44.911Z,28.42
2022-12-04T01:06:23.220Z,32.05
2022-12-04T01:08:51.143Z,44.20
2022-12-04T01:11:18.510Z,52.15
2022-12-04T01:13:47.707Z,27.17
2022-12-04T01:16:26.605Z,19.05
2022-12-04T01:18:53.429Z,33.05
2022-12-04T01:21:20.404Z,20.95
2022-12-04T01:23:47.267Z,21.60
2022-12-04T01:26:14.596Z,18.65
2022-12-04T01:28:41.860Z,19.05
2022-12-04T01:31:14.375Z,19.95
2022-12-04T01:33:46.296Z,23.02
2022-12-04T01:36:16.708Z,21.77
2022-12-04T01:38:45.726Z,23.63
2022-12-04T01:41:14.855Z,22.58
2022-12-04T01:43:41.855Z,60.20
2022-12-04T01:46:09.030Z,24.65
2022-12-04T01:48:50.891Z,30.73
2022-12-04T01:51:29.302Z,22.03
2022-12-04T01:54:02.483Z,23.05
2022-12-04T01:56:40.677Z,34.08
2022-12-04T01:59:09.211Z,36.50
2022-12-04T02:01:42.620Z,32.65
2022-12-04T02:04:14.184Z,31.15
2022-12-04T02:06:40.565Z,17.20
2022-12-04T02:09:07.560Z,20.80
2022-12-04T02:11:51.876Z,36.72
2022-12-04T02:14:27.490Z,25.80
2022-12-04T02:17:20.475Z,26.88
2022-12-04T02:20:05.404Z,30.23
2022-12-04T02:22:59.615Z,31.00
2022-12-04T02:26:06.882Z,37.50
2022-12-04T02:28:55.247Z,39.20
2022-12-04T02:31:48.429Z,28.00
2022-12-04T02:34:26.708Z,43.90
2022-12-04T02:36:59.385Z,22.65
2022-12-04T02:39:30.885Z,19.23
2022-12-04T02:42:07.179Z,40.20
2022-12-04T02:44:57.262Z,21.02
2022-12-04T02:47:26.852Z,19.17
2022-12-04T02:49:59.172Z,66.55
2022-12-04T02:52:36.529Z,81.30
2022-12-04T02:55:08.761Z,22.63
2022-12-04T03:00:08.246Z,60.55
2022-12-04T03:02:54.929Z,29.33
2022-12-04T03:05:32.905Z,23.05
2022-12-04T03:08:04.633Z,18.88
2022-12-04T03:10:39.084Z,23.20
2022-12-04T03:13:24.275Z,18.33
2022-12-04T03:15:58.348Z,26.05
2022-12-04T03:18:30.708Z,21.70
2022-12-04T03:21:04.187Z,17.40
2022-12-04T03:23:37.695Z,20.17
2022-12-04T03:26:10.842Z,23.98
2022-12-04T03:29:00.510Z,23.52
2022-12-04T03:31:43.253Z,20.10
2022-12-04T03:34:11.445Z,22.48
2022-12-04T03:36:45.754Z,19.30
2022-12-04T03:39:20.574Z,24.33
2022-12-04T03:41:57.917Z,20.88
2022-12-04T03:44:38.095Z,24.90
2022-12-04T03:47:17.142Z,24.13
2022-12-04T03:49:54.432Z,16.83
2022-12-04T03:52:41.692Z,21.27
2022-12-04T03:55:21.565Z,21.92
2022-12-04T03:57:51.153Z,20.80
2022-12-04T04:00:20.338Z,19.85
2022-12-04T04:02:53.594Z,21.23
2022-12-04T04:05:22.484Z,19.77
2022-12-04T04:07:55.992Z,20.73
2022-12-04T04:10:26.649Z,20.70
2022-12-04T04:13:20.006Z,19.73
2022-12-04T04:16:11.573Z,18.02
2022-12-04T04:18:58.317Z,20.33
2022-12-04T04:21:50.734Z,16.90
2022-12-04T04:24:51.377Z,16.88
2022-12-04T04:27:17.836Z,22.98
2022-12-04T04:29:52.332Z,20.45
2022-12-04T04:32:23.183Z,21.55
2022-12-04T04:35:03.826Z,19.08
2022-12-04T04:37:54.473Z,17.33
2022-12-04T04:40:28.327Z,16.42
2022-12-04T04:43:11.397Z,19.75
2022-12-04T04:45:40.925Z,20.50
2022-12-04T04:48:19.107Z,19.33
2022-12-04T04:50:46.203Z,22.48
2022-12-04T04:53:19.515Z,16.05
2022-12-04T04:55:49.526Z,19.40
2022-12-04T04:58:19.209Z,18.90
2022-12-04T05:01:08.687Z,20.83
2022-12-04T05:03:35.339Z,19.05
2022-12-04T05:06:02.091Z,21.85
2022-12-04T05:08:28.638Z,17.90
2022-12-04T05:10:57.467Z,22.80
2022-12-04T05:13:24.105Z,14.85
2022-12-04T05:16:05.512Z,21.75
2022-12-04T05:18:33.247Z,17.00
2022-12-04T05:20:59.676Z,15.88
2022-12-04T05:23:26.252Z,21.95
2022-12-04T05:25:59.910Z,19.20
2022-12-04T05:28:26.403Z,12.60
2022-12-04T05:31:00.215Z,14.07
2022-12-04T05:33:33.409Z,15.63
2022-12-04T05:36:02.922Z,18.85
2022-12-04T05:38:29.973Z,18.27
2022-12-04T05:41:01.155Z,17.85
2022-12-04T05:43:28.035Z,16.48
2022-12-04T05:45:54.727Z,16.63
2022-12-04T05:48:21.220Z,20.65
2022-12-04T05:50:50.000Z,16.58
2022-12-04T05:53:16.457Z,15.43
2022-12-04T05:55:42.872Z,19.15
2022-12-04T05:58:09.471Z,15.98
2022-12-04T06:00:36.052Z,16.88
2022-12-04T06:03:02.448Z,15.60
2022-12-04T06:05:28.904Z,14.32
2022-12-04T06:07:55.331Z,17.50
2022-12-04T06:10:21.752Z,13.68
2022-12-04T06:12:48.121Z,16.20
2022-12-04T06:15:14.484Z,17.15
2022-12-04T06:17:40.899Z,13.77
2022-12-04T06:20:11.951Z,15.48
2022-12-04T06:22:40.823Z,22.35
2022-12-04T06:25:08.088Z,16.67
2022-12-04T06:27:34.708Z,17.52
2022-12-04T06:30:01.971Z,15.13
2022-12-04T06:32:28.538Z,19.42
2022-12-04T06:34:55.274Z,14.02
2022-12-04T06:37:23.425Z,15.88
2022-12-04T06:39:50.055Z,16.45
2022-12-04T06:42:16.495Z,13.02
2022-12-04T06:44:43.018Z,17.88
2022-12-04T06:47:13.980Z,16.95
2022-12-04T06:49:42.735Z,14.18
2022-12-04T06:52:09.144Z,14.98
2022-12-04T06:54:35.665Z,14.02
2022-12-04T06:57:06.681Z,21.23
2022-12-04T06:59:33.834Z,18.27
2022-12-04T07:02:00.403Z,17.05
2022-12-04T07:04:27.286Z,21.40
2022-12-04T07:06:54.422Z,13.70
2022-12-04T07:09:20.892Z,14.15
2022-12-04T07:11:47.315Z,14.63
2022-12-04T07:14:13.874Z,13.93
2022-12-04T07:16:42.326Z,19.30
2022-12-04T07:19:12.620Z,13.50
2022-12-04T07:21:39.275Z,13.30
2022-12-04T07:24:08.528Z,13.60
2022-12-04T07:26:35.011Z,11.27
2022-12-04T07:29:01.452Z,12.65
2022-12-04T07:31:32.049Z,21.48
2022-12-04T07:33:58.818Z,13.57
2022-12-04T07:36:26.301Z,16.75
2022-12-04T07:38:55.630Z,11.38
2022-12-04T07:41:22.249Z,15.88
2022-12-04T07:43:48.815Z,17.73
2022-12-04T07:46:19.253Z,15.23
2022-12-04T07:48:46.654Z,11.23
2022-12-04T07:51:19.107Z,13.52
2022-12-04T07:56:13.424Z,12.35
2022-12-04T07:58:41.563Z,10.75
2022-12-04T08:01:11.061Z,12.93
2022-12-04T08:03:46.713Z,11.43
2022-12-04T08:06:14.706Z,11.65
2022-12-04T08:08:41.496Z,14.07
2022-12-04T08:11:10.305Z,13.95
2022-12-04T08:13:39.537Z,13.98
2022-12-04T08:16:08.391Z,16.67
2022-12-04T08:18:35.189Z,19.30
2022-12-04T08:21:09.245Z,13.23
2022-12-04T08:23:36.640Z,12.50
2022-12-04T08:26:04.533Z,14.07
2022-12-04T08:28:34.022Z,11.65
2022-12-04T08:31:10.566Z,19.17
2022-12-04T08:33:37.264Z,15.55
2022-12-04T08:36:08.571Z,13.35
2022-12-04T08:38:35.697Z,13.23
2022-12-04T08:41:06.775Z,12.20
2022-12-04T08:43:33.444Z,16.58
2022-12-04T08:46:02.274Z,18.85
2022-12-04T08:48:32.215Z,16.52
2022-12-04T08:50:59.551Z,14.20
2022-12-04T08:53:26.004Z,15.38
2022-12-04T08:55:55.013Z,15.10
2022-12-04T08:58:22.104Z,12.73
2022-12-04T09:00:48.768Z,13.02
2022-12-04T09:03:17.973Z,14.20
2022-12-04T09:05:45.855Z,17.80
2022-12-04T09:08:14.005Z,12.63
2022-12-04T09:10:41.475Z,19.70
2022-12-04T09:13:08.285Z,15.18
2022-12-04T09:15:39.267Z,17.02
2022-12-04T09:18:07.126Z,18.17
2022-12-04T09:20:33.571Z,16.70
2022-12-04T09:23:04.491Z,13.57
2022-12-04T09:25:32.164Z,15.77
2022-12-04T09:27:58.678Z,17.48
2022-12-04T09:30:27.373Z,12.57
2022-12-04T09:32:56.317Z,15.18
2022-12-04T09:35:22.824Z,12.85
2022-12-04T09:37:49.268Z,14.82
2022-12-04T09:40:30.739Z,11.88
2022-12-04T09:43:26.407Z,12.68
2022-12-04T09:45:58.597Z,14.23
2022-12-04T09:48:33.108Z,14.60
2022-12-04T09:51:01.858Z,12.63
2022-12-04T09:53:35.508Z,17.67
2022-12-04T09:56:07.997Z,22.52
2022-12-04T10:01:03.166Z,12.85
2022-12-04T10:03:32.932Z,15.43
2022-12-04T10:06:14.410Z,20.13
2022-12-04T10:08:46.420Z,13.30
2022-12-04T10:11:17.011Z,15.98
2022-12-04T10:14:01.391Z,14.13
2022-12-04T10:17:11.631Z,18.48
2022-12-04T10:20:02.498Z,14.90
2022-12-04T10:22:47.843Z,10.52
2022-12-04T10:25:25.675Z,17.08
2022-12-04T10:28:00.241Z,18.55
2022-12-04T10:30:30.790Z,12.63
2022-12-04T10:33:11.590Z,16.42
2022-12-04T10:35:43.722Z,19.50
2022-12-04T10:38:22.671Z,16.40
2022-12-04T10:40:55.896Z,14.23
2022-12-04T10:43:44.198Z,17.80
2022-12-04T10:46:23.524Z,11.80
2022-12-04T10:48:55.891Z,14.20
2022-12-04T10:51:22.962Z,14.40
2022-12-04T10:53:52.387Z,12.77
2022-12-04T10:56:20.104Z,11.70
2022-12-04T10:59:00.968Z,13.63
2022-12-04T11:01:30.417Z,12.82
2022-12-04T11:04:02.089Z,10.77
2022-12-04T11:06:29.993Z,27.25
2022-12-04T11:08:58.395Z,11.90
2022-12-04T11:11:31.027Z,12.80
2022-12-04T11:14:06.074Z,13.95
2022-12-04T11:16:37.977Z,22.13
2022-12-04T11:19:19.813Z,13.57
2022-12-04T11:21:46.714Z,16.15
2022-12-04T11:24:22.865Z,14.25
2022-12-04T11:26:52.922Z,12.38
2022-12-04T11:29:24.984Z,44.35
2022-12-04T11:31:53.004Z,32.15
2022-12-04T11:34:22.525Z,23.73
2022-12-04T11:36:57.102Z,21.95
2022-12-04T11:39:32.209Z,17.08
2022-12-04T11:42:19.564Z,13.70
2022-12-04T11:44:57.861Z,13.30
2022-12-04T11:47:29.398Z,15.55
2022-12-04T11:50:03.533Z,19.20
2022-12-04T11:52:41.909Z,18.42
2022-12-04T11:55:37.149Z,18.92
2022-12-04T11:58:08.732Z,17.88
2022-12-04T12:00:42.611Z,17.47
2022-12-04T12:03:33.913Z,36.22
2022-12-04T12:06:09.657Z,18.33
2022-12-04T12:08:45.140Z,20.73
2022-12-04T12:11:36.146Z,16.90
2022-12-04T12:14:24.183Z,18.67
2022-12-04T12:17:15.491Z,17.33
2022-12-04T12:19:58.556Z,17.05
2022-12-04T12:22:27.900Z,25.77
2022-12-04T12:25:13.994Z,18.75
2022-12-04T12:28:05.083Z,22.75
2022-12-04T12:30:46.455Z,30.67
2022-12-04T12:33:20.066Z,26.13
2022-12-04T12:36:03.258Z,17.10
2022-12-04T12:38:41.623Z,20.02
2022-12-04T12:41:14.369Z,23.00
2022-12-04T12:43:45.735Z,21.10
2022-12-04T12:46:25.338Z,24.63
2022-12-04T12:49:00.992Z,19.85
2022-12-04T12:51:52.629Z,18.00
2022-12-04T12:54:28.399Z,23.27
2022-12-04T12:57:11.761Z,26.23
2022-12-04T12:59:44.005Z,21.80
2022-12-04T13:02:30.085Z,26.55
2022-12-04T13:05:02.515Z,22.38
2022-12-04T13:07:53.353Z,19.50
2022-12-04T13:10:28.670Z,20.25
2022-12-04T13:13:00.488Z,29.83
2022-12-04T13:15:44.731Z,24.45
2022-12-04T13:18:25.380Z,23.15
2022-12-04T13:20:57.835Z,19.30
2022-12-04T13:26:12.283Z,24.67
2022-12-04T13:28:54.651Z,22.88
2022-12-04T13:31:30.510Z,24.40
2022-12-04T13:34:40.980Z,22.63
2022-12-04T13:37:19.914Z,22.33
2022-12-04T13:40:23.661Z,16.92
2022-12-04T13:42:52.801Z,19.50
2022-12-04T13:45:31.913Z,19.70
2022-12-04T13:48:00.845Z,29.90
2022-12-04T13:50:31.021Z,21.95
2022-12-04T13:52:57.972Z,26.33
2022-12-04T13:55:27.275Z,20.05
2022-12-04T13:58:18.872Z,25.30
2022-12-04T14:00:45.687Z,20.85
2022-12-04T14:03:29.531Z,26.45
2022-12-04T14:05:56.343Z,21.00
2022-12-04T14:08:26.196Z,24.15
2022-12-04T14:11:01.341Z,29.63
2022-12-04T14:13:49.775Z,26.38
2022-12-04T14:16:24.039Z,27.50
2022-12-04T14:19:01.139Z,27.63
2022-12-04T14:21:48.068Z,34.35
2022-12-04T14:24:30.691Z,32.67
2022-12-04T14:29:51.117Z,32.78
2022-12-04T14:32:23.640Z,38.35
2022-12-04T14:34:56.193Z,31.58
2022-12-04T14:37:36.347Z,29.02
2022-12-04T14:40:07.248Z,28.17
2022-12-04T14:42:35.764Z,24.48
2022-12-04T14:45:06.233Z,26.10
2022-12-04T14:47:58.897Z,25.33
2022-12-04T14:50:39.417Z,30.42
2022-12-04T14:53:32.314Z,31.90
2022-12-04T14:58:36.398Z,31.67
2022-12-04T15:01:25.285Z,32.15
2022-12-04T15:03:57.949Z,35.55
2022-12-04T15:06:31.277Z,29.45
2022-12-04T15:09:23.080Z,29.05
2022-12-04T15:12:13.255Z,45.15
2022-12-04T15:14:46.944Z,41.05
2022-12-04T15:17:16.195Z,29.23
2022-12-04T15:19:42.851Z,34.78
2022-12-04T15:22:22.507Z,37.50
2022-12-04T15:24:50.042Z,28.25
2022-12-04T15:27:19.110Z,34.95
2022-12-04T15:29:51.452Z,31.88
2022-12-04T15:32:21.503Z,30.35
2022-12-04T15:34:52.827Z,32.08
2022-12-04T15:37:24.647Z,33.60
2022-12-04T15:39:52.799Z,38.67
2022-12-04T15:42:30.126Z,39.97
2022-12-04T15:45:27.862Z,38.67
2022-12-04T15:47:58.762Z,49.38
2022-12-04T15:50:31.136Z,34.75
2022-12-04T15:53:08.880Z,36.03
2022-12-04T15:55:48.464Z,40.00
2022-12-04T15:58:28.066Z,33.17
2022-12-04T16:01:05.379Z,41.00
2022-12-04T16:03:44.167Z,40.13
2022-12-04T16:06:13.439Z,35.97
2022-12-04T16:08:41.712Z,39.90
2022-12-04T16:11:25.424Z,39.25
2022-12-04T16:14:16.365Z,33.95
2022-12-04T16:16:46.243Z,37.72
2022-12-04T16:19:17.918Z,40.50
2022-12-04T16:21:44.866Z,35.40
2022-12-04T16:24:15.080Z,92.93
2022-12-04T16:26:41.714Z,42.60
2022-12-04T16:29:08.271Z,41.15
2022-12-04T16:31:35.530Z,27.73
2022-12-04T16:34:04.605Z,32.17
2022-12-04T16:36:34.167Z,40.55
2022-12-04T16:39:00.710Z,28.77
2022-12-04T16:41:27.234Z,37.80
2022-12-04T16:44:00.562Z,41.95
2022-12-04T16:46:29.464Z,34.85
2022-12-04T16:48:56.528Z,38.90
2022-12-04T16:51:25.704Z,42.22
2022-12-04T16:53:53.109Z,49.50
2022-12-04T16:56:25.756Z,37.03
2022-12-04T16:58:54.473Z,35.15
2022-12-04T17:01:21.303Z,31.48
2022-12-04T17:03:48.671Z,28.05
2022-12-04T17:06:15.848Z,37.95
2022-12-04T17:08:42.301Z,41.00
2022-12-04T17:11:12.898Z,39.60
2022-12-04T17:13:42.205Z,32.38
2022-12-04T17:16:09.328Z,33.90
2022-12-04T17:18:36.001Z,48.28
2022-12-04T17:21:09.956Z,44.88
2022-12-04T17:23:36.881Z,38.90
2022-12-04T17:26:05.096Z,42.28
2022-12-04T17:28:32.268Z,42.90
2022-12-04T17:30:59.123Z,34.38
2022-12-04T17:33:26.010Z,34.83
2022-12-04T17:35:54.032Z,43.13
2022-12-04T17:38:20.504Z,45.90
2022-12-04T17:40:59.554Z,39.67
2022-12-04T17:43:26.108Z,36.55
2022-12-04T17:45:52.507Z,33.00
2022-12-04T17:48:18.938Z,43.40
2022-12-04T17:50:45.362Z,41.42
2022-12-04T17:53:11.734Z,42.03
2022-12-04T17:55:38.262Z,36.47
2022-12-04T17:58:04.652Z,40.08
2022-12-04T18:00:31.133Z,41.33
2022-12-04T18:02:57.713Z,43.95
2022-12-04T18:05:30.620Z,38.88
2022-12-04T18:07:57.239Z,37.75
2022-12-04T18:10:26.805Z,41.38
2022-12-04T18:12:53.331Z,44.38
2022-12-04T18:15:19.816Z,39.05
2022-12-04T18:17:46.317Z,43.35
2022-12-04T18:20:13.024Z,52.22
2022-12-04T18:22:39.514Z,37.90
2022-12-04T18:25:07.411Z,46.80
2022-12-04T18:27:41.538Z,45.30
2022-12-04T18:30:09.269Z,40.22
2022-12-04T18:32:35.698Z,43.70
2022-12-04T18:35:02.256Z,34.90
2022-12-04T18:37:28.856Z,46.90
2022-12-04T18:39:55.537Z,36.20
2022-12-04T18:42:22.208Z,33.63
2022-12-04T18:44:48.762Z,44.20
2022-12-04T18:47:15.190Z,50.20
2022-12-04T18:49:41.622Z,51.58
2022-12-04T18:52:08.189Z,52.45
2022-12-04T18:54:34.613Z,46.58
2022-12-04T18:57:01.075Z,39.33
2022-12-04T18:59:29.053Z,46.15
2022-12-04T19:01:57.930Z,45.20
2022-12-04T19:04:25.276Z,47.40
2022-12-04T19:06:55.119Z,64.35
2022-12-04T19:09:47.251Z,53.00
2022-12-04T19:12:12.041Z,44.25
2022-12-04T19:14:42.087Z,55.60
2022-12-04T19:17:08.968Z,46.72
2022-12-04T19:19:40.173Z,52.95
2022-12-04T19:22:06.650Z,82.47
2022-12-04T19:24:33.162Z,69.82
2022-12-04T19:27:00.354Z,54.22
2022-12-04T19:29:29.320Z,80.57
2022-12-04T19:31:59.301Z,71.82
2022-12-04T19:34:26.581Z,58.03
2022-12-04T19:36:54.635Z,68.13
2022-12-04T19:39:21.008Z,72.90
2022-12-04T19:41:47.679Z,97.22
2022-12-04T19:44:47.260Z,123.18
2022-12-04T19:47:03.746Z,73.85
2022-12-04T19:49:30.257Z,64.95
2022-12-04T19:51:59.392Z,85.28
2022-12-04T19:54:26.139Z,63.70
2022-12-04T19:56:54.992Z,64.15
2022-12-04T19:59:21.360Z,56.50
2022-12-04T20:01:48.218Z,51.67
2022-12-04T20:04:15.741Z,52.58
2022-12-04T20:06:44.717Z,54.10
2022-12-04T20:09:14.842Z,57.97
2022-12-04T20:11:42.121Z,59.25
2022-12-04T20:14:10.075Z,44.25
2022-12-04T20:16:37.950Z,45.25
2022-12-04T20:19:06.477Z,49.50
2022-12-04T20:21:33.061Z,54.08
2022-12-04T20:24:05.064Z,38.75
2022-12-04T20:26:37.371Z,46.95
2022-12-04T20:29:12.962Z,45.38
2022-12-04T20:31:42.677Z,38.67
2022-12-04T20:34:13.164Z,42.85
2022-12-04T20:36:42.199Z,43.53
2022-12-04T20:39:10.948Z,43.88
2022-12-04T20:41:40.327Z,47.80
2022-12-04T20:44:11.337Z,44.22
2022-12-04T20:46:40.011Z,37.58
2022-12-04T20:49:14.620Z,40.92
2022-12-04T20:51:47.910Z,45.78
2022-12-04T20:54:18.538Z,33.92
2022-12-04T20:56:49.110Z,38.80
2022-12-04T20:59:19.957Z,37.47
2022-12-04T21:01:49.258Z,41.70
2022-12-04T21:04:18.036Z,35.60
2022-12-04T21:06:46.715Z,47.33
2022-12-04T21:09:19.955Z,32.00
2022-12-04T21:11:51.752Z,41.88
2022-12-04T21:14:41.587Z,39.92
2022-12-04T21:17:11.920Z,37.90
2022-12-04T21:19:38.838Z,40.78
2022-12-04T21:22:05.606Z,44.78
2022-12-04T21:24:38.417Z,46.22
2022-12-04T21:27:07.757Z,43.00
2022-12-04T21:29:35.003Z,43.47
2022-12-04T21:32:02.207Z,39.05
2022-12-04T21:34:28.624Z,39.95
2022-12-04T21:36:55.168Z,47.08
2022-12-04T21:39:24.214Z,41.35
2022-12-04T21:42:11.027Z,46.65
2022-12-04T21:44:38.150Z,47.25
2022-12-04T21:47:04.987Z,44.88
2022-12-04T21:49:31.408Z,45.63
2022-12-04T21:51:58.908Z,43.55
2022-12-04T21:54:27.769Z,38.13
2022-12-04T21:56:54.955Z,42.88
2022-12-04T21:59:21.800Z,42.40
2022-12-04T22:01:48.505Z,45.83
2022-12-04T22:04:18.180Z,49.65
2022-12-04T22:06:44.576Z,51.05
2022-12-04T22:09:12.171Z,53.47
2022-12-04T22:11:41.456Z,37.30
2022-12-04T22:14:08.804Z,39.45
2022-12-04T22:16:41.336Z,34.00
2022-12-04T22:19:12.421Z,45.75
2022-12-04T22:21:39.458Z,49.33
2022-12-04T22:24:06.544Z,57.45
2022-12-04T22:26:33.351Z,42.50
2022-12-04T22:28:59.988Z,44.85
2022-12-04T22:31:27.956Z,39.50
2022-12-04T22:33:56.416Z,45.45
2022-12-04T22:36:26.416Z,49.38
2022-12-04T22:39:08.752Z,47.38
2022-12-04T22:41:36.220Z,45.28
2022-12-04T22:44:02.670Z,47.92
2022-12-04T22:46:32.390Z,45.40
2022-12-04T22:48:59.818Z,51.28
2022-12-04T22:51:27.255Z,55.47
2022-12-04T22:53:55.812Z,62.95
2022-12-04T22:56:31.556Z,41.25
2022-12-04T22:58:59.132Z,43.13
2022-12-04T23:01:28.130Z,56.03
2022-12-04T23:03:55.162Z,52.60
2022-12-04T23:06:24.624Z,44.00
2022-12-04T23:08:58.186Z,45.85
2022-12-04T23:11:26.230Z,54.35
2022-12-04T23:13:55.352Z,52.70
2022-12-04T23:16:23.284Z,47.45
2022-12-04T23:18:49.940Z,58.55
2022-12-04T23:21:17.999Z,61.85
2022-12-04T23:23:45.498Z,58.72
2022-12-04T23:26:15.193Z,50.33
2022-12-04T23:28:41.901Z,61.83
2022-12-04T23:31:08.765Z,59.80
2022-12-04T23:33:35.279Z,55.97
2022-12-04T23:36:02.441Z,63.00
2022-12-04T23:38:29.819Z,61.20
2022-12-04T23:41:13.987Z,49.25
2022-12-04T23:43:40.881Z,42.33
2022-12-04T23:46:11.202Z,57.80
2022-12-04T23:48:39.475Z,60.70
2022-12-04T23:51:09.588Z,56.08
2022-12-04T23:53:36.666Z,58.70
2022-12-04T23:56:07.620Z,51.42
2022-12-04T23:58:35.099Z,59.53
